Time;durP1;ratioP1;P1;durP2;ratioP2;P2;SDS_P1;SDS_P2;PMS_P1;PMS_P2;Temp;Humidity;BMP_temperature;BMP_pressure;BME280_temperature;BME280_humidity;BME280_pressure;Samples;Min_cycle;Max_cycle;Signal;HPM_P1;HPM_P2
2022/03/22 00:00:37;;;;;;;79.57;16.20;;;;;;;;;;5114778;28;20203;-70
2022/03/22 00:03:05;;;;;;;75.35;14.85;;;;;;;;;;5114895;28;20593;-69
2022/03/22 00:05:32;;;;;;;80.45;15.95;;;;;;;;;;5114669;28;20204;-68
2022/03/22 00:08:00;;;;;;;81.75;16.00;;;;;;;;;;5114100;28;20385;-71
2022/03/22 00:10:28;;;;;;;78.65;15.63;;;;;;;;;;5113616;28;20292;-69
2022/03/22 00:12:55;;;;;;;74.30;13.80;;;;;;;;;;5111785;28;20204;-69
2022/03/22 00:15:22;;;;;;;76.40;14.88;;;;;;;;;;5114619;28;20283;-68
2022/03/22 00:17:51;;;;;;;77.20;15.63;;;;;;;;;;5113679;28;20314;-68
2022/03/22 00:20:18;;;;;;;76.97;15.43;;;;;;;;;;5114298;28;20301;-68
2022/03/22 00:22:45;;;;;;;82.82;14.48;;;;;;;;;;5114396;28;20286;-69
2022/03/22 00:25:15;;;;;;;78.82;15.20;;;;;;;;;;5114717;28;20200;-71
2022/03/22 00:27:53;;;;;;;77.95;15.73;;;;;;;;;;5113626;28;20227;-68
2022/03/22 00:30:20;;;;;;;79.00;16.95;;;;;;;;;;5114197;27;20218;-68
2022/03/22 00:32:47;;;;;;;77.43;17.38;;;;;;;;;;5113927;28;20234;-68
2022/03/22 00:35:18;;;;;;;80.70;18.00;;;;;;;;;;5114355;28;20230;-69
2022/03/22 00:37:46;;;;;;;79.25;15.88;;;;;;;;;;5113152;28;20231;-69
2022/03/22 00:40:15;;;;;;;78.47;16.02;;;;;;;;;;5114179;28;20668;-69
2022/03/22 00:42:42;;;;;;;77.57;16.55;;;;;;;;;;5112279;28;20234;-73
2022/03/22 00:45:10;;;;;;;73.72;14.65;;;;;;;;;;5091623;28;20277;-69
2022/03/22 00:47:37;;;;;;;75.70;15.20;;;;;;;;;;5092701;28;20808;-69
2022/03/22 00:50:04;;;;;;;81.80;16.08;;;;;;;;;;5093464;28;20759;-69
2022/03/22 00:52:35;;;;;;;80.40;16.33;;;;;;;;;;5093539;28;20267;-68
2022/03/22 00:55:02;;;;;;;81.25;16.35;;;;;;;;;;5093445;28;20204;-68
2022/03/22 00:57:29;;;;;;;78.25;15.23;;;;;;;;;;5092527;28;20230;-68
2022/03/22 01:00:02;;;;;;;79.72;15.50;;;;;;;;;;5093169;28;20294;-69
2022/03/22 01:02:29;;;;;;;79.35;16.48;;;;;;;;;;5093443;28;20201;-69
2022/03/22 01:04:57;;;;;;;75.53;14.80;;;;;;;;;;5093271;28;20303;-69
2022/03/22 01:07:24;;;;;;;76.88;16.00;;;;;;;;;;5092639;28;20266;-68
2022/03/22 01:09:53;;;;;;;77.65;15.98;;;;;;;;;;5093616;28;20204;-71
2022/03/22 01:12:21;;;;;;;76.32;14.55;;;;;;;;;;5093006;28;20220;-68
2022/03/22 01:14:48;;;;;;;76.47;14.65;;;;;;;;;;5091558;28;20200;-71
2022/03/22 01:17:15;;;;;;;74.80;14.38;;;;;;;;;;5091029;28;20315;-70
2022/03/22 01:19:43;;;;;;;74.45;14.93;;;;;;;;;;5092915;28;20295;-68
2022/03/22 01:22:10;;;;;;;76.22;14.55;;;;;;;;;;5092155;28;20223;-70
2022/03/22 01:24:37;;;;;;;75.28;14.93;;;;;;;;;;5092916;28;20207;-68
2022/03/22 01:27:06;;;;;;;78.68;15.40;;;;;;;;;;5092525;28;20319;-69
2022/03/22 01:29:33;;;;;;;76.55;15.55;;;;;;;;;;5092663;28;20219;-68
2022/03/22 01:32:00;;;;;;;86.45;15.27;;;;;;;;;;5092769;28;20220;-71
2022/03/22 01:34:27;;;;;;;78.45;15.32;;;;;;;;;;5092779;28;20622;-69
2022/03/22 01:36:54;;;;;;;75.35;14.48;;;;;;;;;;5092441;28;20318;-69
2022/03/22 01:39:22;;;;;;;75.68;15.02;;;;;;;;;;5091736;28;20207;-68
2022/03/22 01:41:49;;;;;;;76.65;14.57;;;;;;;;;;5092663;28;20204;-69
2022/03/22 01:44:17;;;;;;;77.00;13.93;;;;;;;;;;5092457;28;20214;-67
2022/03/22 01:46:45;;;;;;;82.65;14.20;;;;;;;;;;5090141;28;20234;-73
2022/03/22 01:49:12;;;;;;;76.95;14.70;;;;;;;;;;5111682;28;20204;-68
2022/03/22 01:51:41;;;;;;;78.60;13.88;;;;;;;;;;5112650;28;20223;-69
2022/03/22 01:54:08;;;;;;;73.47;13.75;;;;;;;;;;5112686;28;20211;-69
2022/03/22 01:56:36;;;;;;;79.78;15.95;;;;;;;;;;5112820;28;20234;-69
2022/03/22 01:59:03;;;;;;;75.13;14.30;;;;;;;;;;5111872;28;20204;-69
2022/03/22 02:07:01;;;;;;;73.20;14.75;;;;;;;;;;5112589;28;20699;-72
2022/03/22 02:09:29;;;;;;;76.65;15.07;;;;;;;;;;5111916;28;20307;-69
2022/03/22 02:11:56;;;;;;;78.50;15.07;;;;;;;;;;5112313;28;20224;-69
2022/03/22 02:14:23;;;;;;;76.65;15.52;;;;;;;;;;5112380;28;20210;-71
2022/03/22 02:16:52;;;;;;;75.72;14.57;;;;;;;;;;5112443;28;20235;-69
2022/03/22 02:19:19;;;;;;;76.88;15.05;;;;;;;;;;5108485;28;20705;-69
2022/03/22 02:21:46;;;;;;;74.55;15.43;;;;;;;;;;5112669;28;20203;-69
2022/03/22 02:24:15;;;;;;;81.50;15.15;;;;;;;;;;5112559;28;20201;-69
2022/03/22 02:26:42;;;;;;;77.15;14.80;;;;;;;;;;5106472;28;20750;-69
2022/03/22 02:29:09;;;;;;;77.07;14.73;;;;;;;;;;5090859;28;20294;-71
2022/03/22 02:31:37;;;;;;;71.88;14.07;;;;;;;;;;5091859;28;20291;-69
2022/03/22 02:34:04;;;;;;;76.70;14.55;;;;;;;;;;5096185;28;20211;-71
2022/03/22 02:36:32;;;;;;;73.10;14.13;;;;;;;;;;5095847;28;20255;-72
2022/03/22 02:38:59;;;;;;;73.93;14.95;;;;;;;;;;5095282;28;20208;-70
2022/03/22 02:41:27;;;;;;;74.70;15.07;;;;;;;;;;5095898;28;20210;-70
2022/03/22 02:43:55;;;;;;;77.90;13.88;;;;;;;;;;5095830;28;20294;-69
2022/03/22 02:46:22;;;;;;;75.68;16.00;;;;;;;;;;5096074;28;20224;-70
2022/03/22 02:48:49;;;;;;;75.43;14.70;;;;;;;;;;5095612;28;20200;-69
2022/03/22 02:51:17;;;;;;;78.38;14.63;;;;;;;;;;5099711;28;20577;-69
2022/03/22 02:53:44;;;;;;;74.13;13.55;;;;;;;;;;5116010;28;20219;-69
2022/03/22 02:56:11;;;;;;;78.82;16.15;;;;;;;;;;5116034;27;20310;-69
2022/03/22 02:58:40;;;;;;;75.47;15.00;;;;;;;;;;5115475;28;20207;-67
2022/03/22 03:01:07;;;;;;;77.18;15.15;;;;;;;;;;5116022;28;20209;-67
2022/03/22 03:03:34;;;;;;;77.10;15.40;;;;;;;;;;5116011;28;20195;-70
2022/03/22 03:06:02;;;;;;;79.32;15.07;;;;;;;;;;5115893;28;20227;-68
2022/03/22 03:08:29;;;;;;;78.95;17.33;;;;;;;;;;5114950;28;20294;-70
2022/03/22 03:10:56;;;;;;;74.25;13.57;;;;;;;;;;5115954;28;20208;-69
2022/03/22 03:13:23;;;;;;;77.05;13.95;;;;;;;;;;5115640;28;20711;-69
2022/03/22 03:15:52;;;;;;;77.90;15.00;;;;;;;;;;5115633;28;20206;-69
2022/03/22 03:18:19;;;;;;;76.60;14.57;;;;;;;;;;5115171;28;20295;-69
2022/03/22 03:20:46;;;;;;;78.45;15.35;;;;;;;;;;5115458;28;20205;-69
2022/03/22 03:23:13;;;;;;;79.15;16.38;;;;;;;;;;5111541;27;20294;-69
2022/03/22 03:25:41;;;;;;;74.07;13.80;;;;;;;;;;5115866;28;20459;-70
2022/03/22 03:28:09;;;;;;;73.57;15.05;;;;;;;;;;5114937;28;20295;-69
2022/03/22 03:30:36;;;;;;;72.63;13.80;;;;;;;;;;5115653;28;20296;-69
2022/03/22 03:33:06;;;;;;;80.05;15.15;;;;;;;;;;5115366;28;20219;-70
2022/03/22 03:35:33;;;;;;;76.68;14.30;;;;;;;;;;5115323;28;20292;-69
2022/03/22 03:38:00;;;;;;;71.57;12.20;;;;;;;;;;5114785;28;20300;-70
2022/03/22 03:41:53;;;;;;;75.75;14.60;;;;;;;;;;5115168;28;20310;-72
2022/03/22 03:43:14;;;;;;;79.00;15.93;;;;;;;;;;5114626;28;20211;-69
2022/03/22 03:48:27;;;;;;;77.97;14.18;;;;;;;;;;5114502;28;20198;-70
2022/03/22 03:50:54;;;;;;;79.25;15.20;;;;;;;;;;5115243;28;20208;-70
2022/03/22 03:53:23;;;;;;;75.85;13.30;;;;;;;;;;5113923;28;20659;-69
2022/03/22 03:55:50;;;;;;;73.65;14.00;;;;;;;;;;5101649;28;20203;-71
2022/03/22 03:58:17;;;;;;;77.20;14.77;;;;;;;;;;5093810;28;20204;-70
2022/03/22 04:00:44;;;;;;;81.53;15.93;;;;;;;;;;5094495;28;20208;-70
2022/03/22 04:03:12;;;;;;;77.35;15.60;;;;;;;;;;5094632;28;20297;-70
2022/03/22 04:05:40;;;;;;;76.90;14.80;;;;;;;;;;5094548;28;20208;-70
2022/03/22 04:08:07;;;;;;;80.60;14.68;;;;;;;;;;5093805;28;20212;-70
2022/03/22 04:10:34;;;;;;;78.53;15.32;;;;;;;;;;5094203;28;20583;-71
2022/03/22 04:13:02;;;;;;;77.85;15.55;;;;;;;;;;5093916;28;20319;-70
2022/03/22 04:15:29;;;;;;;81.97;15.23;;;;;;;;;;5094545;28;20575;-70
2022/03/22 04:17:59;;;;;;;77.47;15.07;;;;;;;;;;5093587;28;20315;-70
2022/03/22 04:20:26;;;;;;;75.03;14.07;;;;;;;;;;5094452;28;20211;-70
2022/03/22 04:22:55;;;;;;;74.78;14.35;;;;;;;;;;5094321;28;20291;-70
2022/03/22 04:25:22;;;;;;;78.55;14.95;;;;;;;;;;5092912;28;20600;-70
2022/03/22 04:33:18;;;;;;;78.07;15.13;;;;;;;;;;5094066;28;20231;-69
2022/03/22 04:35:45;;;;;;;75.30;13.82;;;;;;;;;;5093855;28;20588;-70
2022/03/22 04:38:14;;;;;;;78.15;15.43;;;;;;;;;;5093248;28;20207;-70
2022/03/22 04:40:41;;;;;;;77.03;16.30;;;;;;;;;;5094040;28;20204;-70
2022/03/22 04:43:08;;;;;;;77.22;15.20;;;;;;;;;;5094125;28;20294;-70
2022/03/22 04:45:36;;;;;;;74.20;12.77;;;;;;;;;;5094083;28;20235;-70
2022/03/22 04:48:03;;;;;;;76.68;14.43;;;;;;;;;;5093010;28;20642;-70
2022/03/22 04:50:30;;;;;;;78.43;15.60;;;;;;;;;;5093569;28;20291;-70
2022/03/22 04:58:33;;;;;;;78.35;13.85;;;;;;;;;;5080315;28;20676;-69
2022/03/22 05:01:00;;;;;;;78.93;14.43;;;;;;;;;;5093377;28;20200;-70
2022/03/22 05:03:28;;;;;;;73.93;14.88;;;;;;;;;;5093329;28;20299;-70
2022/03/22 05:08:39;;;;;;;75.63;14.50;;;;;;;;;;5092909;28;20571;-69
2022/03/22 05:11:08;;;;;;;78.20;15.93;;;;;;;;;;5093323;28;20204;-70
2022/03/22 05:13:35;;;;;;;81.47;15.88;;;;;;;;;;5093241;28;20228;-69
2022/03/22 05:16:03;;;;;;;83.15;14.40;;;;;;;;;;5093585;28;20230;-70
2022/03/22 05:18:30;;;;;;;74.90;15.00;;;;;;;;;;5092582;28;20241;-71
2022/03/22 05:20:57;;;;;;;79.47;15.70;;;;;;;;;;5093018;28;20696;-70
2022/03/22 05:23:24;;;;;;;73.70;14.07;;;;;;;;;;5093034;28;20291;-71
2022/03/22 05:25:51;;;;;;;76.25;14.13;;;;;;;;;;5092892;28;20208;-69
2022/03/22 05:28:20;;;;;;;75.88;15.32;;;;;;;;;;5091327;28;20205;-70
2022/03/22 05:30:47;;;;;;;88.80;20.10;;;;;;;;;;5090230;28;20595;-70
2022/03/22 05:33:14;;;;;;;76.72;15.48;;;;;;;;;;5092906;28;20831;-69
2022/03/22 05:35:41;;;;;;;77.63;16.10;;;;;;;;;;5092977;28;20232;-69
2022/03/22 05:38:09;;;;;;;75.28;14.82;;;;;;;;;;5092355;28;20591;-72
2022/03/22 05:40:36;;;;;;;75.05;14.35;;;;;;;;;;5092878;28;20208;-69
2022/03/22 05:43:03;;;;;;;74.97;14.90;;;;;;;;;;5092974;28;20611;-70
2022/03/22 05:45:32;;;;;;;78.63;15.95;;;;;;;;;;5093026;28;20689;-69
2022/03/22 05:48:00;;;;;;;87.13;20.23;;;;;;;;;;5091979;28;20224;-68
2022/03/22 05:50:27;;;;;;;79.22;17.13;;;;;;;;;;5093148;28;20302;-69
2022/03/22 05:52:55;;;;;;;76.65;17.10;;;;;;;;;;5092339;28;20599;-67
2022/03/22 05:55:22;;;;;;;74.97;14.65;;;;;;;;;;5092765;28;20215;-68
2022/03/22 05:57:49;;;;;;;76.88;15.25;;;;;;;;;;5091840;28;20224;-72
2022/03/22 06:00:18;;;;;;;79.90;15.27;;;;;;;;;;5091443;28;20238;-69
2022/03/22 06:02:46;;;;;;;74.25;14.25;;;;;;;;;;5100768;28;20200;-69
2022/03/22 06:05:14;;;;;;;76.80;15.65;;;;;;;;;;5112974;28;20564;-70
2022/03/22 06:07:42;;;;;;;76.60;16.27;;;;;;;;;;5111271;28;20223;-71
2022/03/22 06:10:12;;;;;;;78.47;16.63;;;;;;;;;;5112641;28;20211;-69
2022/03/22 06:12:40;;;;;;;80.07;15.93;;;;;;;;;;5112283;28;20207;-69
2022/03/22 06:15:17;;;;;;;80.97;14.50;;;;;;;;;;5112491;28;20215;-69
2022/03/22 06:17:47;;;;;;;77.78;16.45;;;;;;;;;;5111565;28;20223;-70
2022/03/22 06:20:14;;;;;;;75.25;14.30;;;;;;;;;;5112509;28;20191;-71
2022/03/22 06:22:41;;;;;;;77.82;16.17;;;;;;;;;;5112059;28;20477;-71
2022/03/22 06:25:09;;;;;;;78.45;14.65;;;;;;;;;;5112595;28;20218;-70
2022/03/22 06:27:36;;;;;;;76.97;15.93;;;;;;;;;;5111588;28;20254;-69
2022/03/22 06:30:04;;;;;;;78.50;17.98;;;;;;;;;;5112349;28;20290;-70
2022/03/22 06:32:32;;;;;;;83.32;17.15;;;;;;;;;;5111684;28;20374;-69
2022/03/22 06:35:00;;;;;;;80.65;17.05;;;;;;;;;;5111902;28;20199;-69
2022/03/22 06:37:27;;;;;;;79.65;16.45;;;;;;;;;;5111251;28;20227;-70
2022/03/22 06:39:54;;;;;;;77.40;16.63;;;;;;;;;;5109316;28;20207;-70
2022/03/22 06:42:22;;;;;;;78.80;17.13;;;;;;;;;;5111833;28;20207;-70
2022/03/22 06:44:49;;;;;;;81.38;15.90;;;;;;;;;;5112095;28;20238;-70
2022/03/22 06:47:16;;;;;;;77.40;15.35;;;;;;;;;;5111242;28;20610;-70
2022/03/22 06:49:43;;;;;;;76.55;15.10;;;;;;;;;;5111943;28;20310;-70
2022/03/22 06:52:12;;;;;;;76.93;13.82;;;;;;;;;;5112219;28;20678;-71
2022/03/22 06:54:39;;;;;;;79.32;16.80;;;;;;;;;;5111978;28;20314;-70
2022/03/22 06:57:06;;;;;;;75.93;13.35;;;;;;;;;;5111813;28;20266;-69
2022/03/22 06:59:34;;;;;;;81.95;17.45;;;;;;;;;;5111512;28;20240;-70
2022/03/22 07:02:01;;;;;;;81.97;16.30;;;;;;;;;;5112122;28;20208;-71
2022/03/22 07:04:28;;;;;;;75.10;14.55;;;;;;;;;;5112074;28;20354;-71
2022/03/22 07:06:55;;;;;;;78.43;15.23;;;;;;;;;;5111957;28;20227;-70
2022/03/22 07:09:24;;;;;;;91.47;15.80;;;;;;;;;;5110477;28;20214;-70
2022/03/22 07:11:51;;;;;;;75.32;14.65;;;;;;;;;;5095588;28;20271;-70
2022/03/22 07:14:19;;;;;;;79.40;16.48;;;;;;;;;;5091922;28;20224;-70
2022/03/22 07:16:47;;;;;;;73.25;15.20;;;;;;;;;;5091675;28;20335;-70
2022/03/22 07:19:14;;;;;;;91.25;13.85;;;;;;;;;;5091852;28;20200;-70
2022/03/22 07:21:42;;;;;;;80.55;15.57;;;;;;;;;;5095362;28;20212;-71
2022/03/22 07:24:10;;;;;;;78.68;15.55;;;;;;;;;;5095244;28;20640;-71
2022/03/22 07:26:38;;;;;;;75.63;15.25;;;;;;;;;;5095111;28;20227;-70
2022/03/22 07:29:05;;;;;;;76.57;14.88;;;;;;;;;;5094723;28;20231;-70
2022/03/22 07:31:37;;;;;;;75.95;14.73;;;;;;;;;;5094891;28;20315;-70
2022/03/22 07:34:06;;;;;;;77.13;15.82;;;;;;;;;;5095039;28;20684;-70
2022/03/22 07:36:35;;;;;;;76.10;15.32;;;;;;;;;;5094925;28;20246;-69
2022/03/22 07:39:02;;;;;;;76.65;14.98;;;;;;;;;;5094242;28;20212;-70
2022/03/22 07:41:30;;;;;;;71.10;11.82;;;;;;;;;;5094787;28;20680;-71
2022/03/22 07:43:58;;;;;;;76.97;15.07;;;;;;;;;;5110206;28;20204;-67
2022/03/22 07:46:26;;;;;;;79.70;16.60;;;;;;;;;;5115001;28;20310;-68
2022/03/22 07:48:53;;;;;;;73.68;14.88;;;;;;;;;;5114428;28;20253;-68
2022/03/22 07:54:06;;;;;;;81.15;15.70;;;;;;;;;;5114789;28;20226;-68
2022/03/22 07:56:33;;;;;;;76.18;14.18;;;;;;;;;;5115110;28;20223;-68
2022/03/22 07:59:01;;;;;;;80.55;15.98;;;;;;;;;;5114248;28;20294;-68
2022/03/22 08:01:28;;;;;;;80.85;14.82;;;;;;;;;;5114830;28;20208;-69
2022/03/22 08:03:55;;;;;;;76.50;14.75;;;;;;;;;;5114571;28;20291;-69
2022/03/22 08:06:23;;;;;;;80.80;15.55;;;;;;;;;;5114525;27;20262;-69
2022/03/22 08:08:50;;;;;;;77.07;13.60;;;;;;;;;;5114110;28;20702;-68
2022/03/22 08:11:17;;;;;;;75.88;14.48;;;;;;;;;;5114750;28;20207;-69
2022/03/22 08:13:44;;;;;;;79.05;15.43;;;;;;;;;;5111245;28;20241;-68
2022/03/22 08:16:14;;;;;;;74.40;14.25;;;;;;;;;;5114561;28;20224;-68
2022/03/22 08:18:41;;;;;;;74.30;13.68;;;;;;;;;;5113875;28;20298;-69
2022/03/22 08:21:08;;;;;;;71.30;14.07;;;;;;;;;;5114666;28;20207;-68
2022/03/22 08:23:35;;;;;;;72.30;12.90;;;;;;;;;;5114162;28;20196;-69
2022/03/22 08:26:03;;;;;;;77.60;14.95;;;;;;;;;;5114475;28;20331;-67
2022/03/22 08:28:30;;;;;;;74.95;14.60;;;;;;;;;;5113971;28;20204;-68
2022/03/22 08:30:57;;;;;;;70.05;11.45;;;;;;;;;;5114066;28;20223;-68
2022/03/22 08:33:25;;;;;;;81.88;13.77;;;;;;;;;;5113898;28;20200;-67
2022/03/22 08:35:52;;;;;;;69.35;11.68;;;;;;;;;;5114329;27;20210;-68
2022/03/22 08:38:21;;;;;;;69.60;12.20;;;;;;;;;;5113102;28;20711;-70
2022/03/22 08:40:48;;;;;;;72.38;12.05;;;;;;;;;;5114530;28;20640;-68
2022/03/22 08:43:15;;;;;;;70.22;12.48;;;;;;;;;;5114173;27;20211;-68
2022/03/22 08:45:42;;;;;;;69.75;12.13;;;;;;;;;;5113074;28;20229;-68
2022/03/22 08:48:11;;;;;;;72.03;12.00;;;;;;;;;;5113085;28;20210;-68
2022/03/22 08:50:40;;;;;;;71.85;11.90;;;;;;;;;;5113523;28;20239;-69
2022/03/22 08:53:07;;;;;;;69.10;11.65;;;;;;;;;;5112698;28;20206;-68
2022/03/22 08:55:36;;;;;;;73.10;12.43;;;;;;;;;;5112079;28;20228;-69
2022/03/22 08:58:05;;;;;;;73.90;12.75;;;;;;;;;;5109633;28;20236;-69
2022/03/22 09:00:32;;;;;;;70.15;12.38;;;;;;;;;;5113018;28;20213;-70
2022/03/22 09:02:59;;;;;;;73.13;13.48;;;;;;;;;;5113445;28;20211;-69
2022/03/22 09:08:13;;;;;;;70.37;11.60;;;;;;;;;;5112819;28;20203;-69
2022/03/22 09:10:40;;;;;;;70.47;11.87;;;;;;;;;;5113108;28;20538;-69
2022/03/22 09:13:07;;;;;;;71.60;12.20;;;;;;;;;;5111862;28;20605;-69
2022/03/22 09:15:37;;;;;;;71.80;12.77;;;;;;;;;;5113757;28;20488;-69
2022/03/22 09:18:05;;;;;;;71.10;11.57;;;;;;;;;;5112929;28;20559;-69
2022/03/22 09:20:33;;;;;;;75.97;13.37;;;;;;;;;;5113562;27;21077;-69
2022/03/22 09:23:00;;;;;;;73.40;12.90;;;;;;;;;;5113149;28;20944;-69
2022/03/22 09:25:29;;;;;;;71.90;13.50;;;;;;;;;;5113103;28;20443;-70
2022/03/22 09:27:56;;;;;;;72.77;13.20;;;;;;;;;;5111491;28;20471;-72
2022/03/22 09:30:24;;;;;;;73.00;12.50;;;;;;;;;;5110970;28;20471;-69
2022/03/22 09:32:51;;;;;;;72.47;13.10;;;;;;;;;;5113084;28;20451;-70
2022/03/22 09:35:19;;;;;;;70.53;12.80;;;;;;;;;;5112995;27;20480;-69
2022/03/22 09:37:47;;;;;;;73.53;12.70;;;;;;;;;;5112293;28;20472;-69
2022/03/22 09:40:15;;;;;;;72.23;13.50;;;;;;;;;;5112925;28;20460;-69
2022/03/22 09:42:45;;;;;;;72.77;13.70;;;;;;;;;;5112256;28;20941;-69
2022/03/22 09:45:13;;;;;;;71.23;13.60;;;;;;;;;;5113020;28;20470;-69
2022/03/22 09:47:42;;;;;;;76.00;14.27;;;;;;;;;;5112017;28;20507;-69
2022/03/22 09:50:10;;;;;;;75.27;14.43;;;;;;;;;;5112836;28;20453;-70
2022/03/22 09:52:38;;;;;;;76.53;14.03;;;;;;;;;;5112595;27;20528;-70
2022/03/22 09:55:06;;;;;;;71.70;13.50;;;;;;;;;;5112841;27;20481;-70
2022/03/22 09:57:33;;;;;;;72.23;13.87;;;;;;;;;;5111930;28;20470;-70
2022/03/22 10:00:01;;;;;;;71.80;14.10;;;;;;;;;;5108717;28;20452;-70
2022/03/22 10:02:28;;;;;;;73.07;14.53;;;;;;;;;;5112558;28;21024;-70
2022/03/22 10:04:56;;;;;;;74.67;14.37;;;;;;;;;;5112424;28;20531;-71
2022/03/22 10:07:24;;;;;;;73.90;13.00;;;;;;;;;;5111737;28;20559;-70
2022/03/22 10:09:54;;;;;;;70.60;13.50;;;;;;;;;;5112824;28;20541;-70
2022/03/22 10:12:28;;;;;;;74.23;14.27;;;;;;;;;;5112594;28;20863;-70
2022/03/22 10:14:55;;;;;;;68.57;12.40;;;;;;;;;;5112324;28;20993;-70
2022/03/22 10:17:24;;;;;;;71.50;13.30;;;;;;;;;;5111628;28;20469;-70
2022/03/22 10:19:52;;;;;;;71.87;13.90;;;;;;;;;;5112258;28;20548;-70
2022/03/22 10:22:23;;;;;;;71.17;13.30;;;;;;;;;;5112499;28;20518;-70
2022/03/22 10:24:52;;;;;;;70.20;13.57;;;;;;;;;;5112439;28;20448;-71
2022/03/22 10:27:23;;;;;;;74.03;13.03;;;;;;;;;;5111616;28;20558;-70
2022/03/22 10:29:50;;;;;;;72.00;14.07;;;;;;;;;;5112075;28;20545;-69
2022/03/22 10:32:19;;;;;;;71.73;13.30;;;;;;;;;;5109057;28;20449;-70
2022/03/22 10:34:47;;;;;;;72.77;14.77;;;;;;;;;;5112301;28;21017;-69
2022/03/22 10:37:15;;;;;;;71.73;14.70;;;;;;;;;;5111603;28;20558;-70
2022/03/22 10:39:43;;;;;;;71.67;14.77;;;;;;;;;;5112238;28;20552;-69
2022/03/22 10:42:10;;;;;;;70.37;13.90;;;;;;;;;;5112490;28;20446;-70
2022/03/22 10:44:38;;;;;;;72.20;14.60;;;;;;;;;;5111847;28;20473;-69
2022/03/22 10:47:07;;;;;;;74.83;15.20;;;;;;;;;;5111977;28;20493;-70
2022/03/22 10:49:34;;;;;;;69.60;14.50;;;;;;;;;;5112223;28;20441;-70
2022/03/22 10:52:03;;;;;;;69.60;13.37;;;;;;;;;;5112035;28;20937;-70
2022/03/22 10:54:30;;;;;;;70.10;13.50;;;;;;;;;;5113758;28;20446;-70
2022/03/22 10:56:59;;;;;;;71.10;15.20;;;;;;;;;;5116009;28;20495;-71
2022/03/22 10:59:28;;;;;;;73.20;16.63;;;;;;;;;;5115316;27;20453;-70
2022/03/22 11:01:56;;;;;;;73.87;14.80;;;;;;;;;;5109657;28;21045;-70
2022/03/22 11:04:24;;;;;;;70.90;15.53;;;;;;;;;;5095560;28;20477;-70
2022/03/22 11:06:51;;;;;;;69.83;14.50;;;;;;;;;;5095270;28;20473;-69
2022/03/22 11:09:21;;;;;;;71.67;15.23;;;;;;;;;;5094848;28;20456;-70
2022/03/22 11:11:50;;;;;;;71.03;15.03;;;;;;;;;;5095347;28;20447;-70
2022/03/22 11:14:19;;;;;;;72.40;15.53;;;;;;;;;;5095502;28;20444;-70
2022/03/22 11:16:48;;;;;;;69.50;14.90;;;;;;;;;;5095619;28;20466;-71
2022/03/22 11:19:17;;;;;;;76.83;14.73;;;;;;;;;;5094780;28;20574;-70
2022/03/22 11:21:44;;;;;;;70.10;14.27;;;;;;;;;;5095292;28;20452;-70
2022/03/22 11:24:12;;;;;;;70.60;15.10;;;;;;;;;;5094838;28;20533;-70
2022/03/22 11:26:42;;;;;;;72.80;14.87;;;;;;;;;;5095123;28;20473;-70
2022/03/22 11:29:10;;;;;;;71.03;15.43;;;;;;;;;;5094643;28;20454;-70
2022/03/22 11:31:38;;;;;;;70.33;15.77;;;;;;;;;;5095458;28;20486;-70
2022/03/22 11:34:12;;;;;;;70.93;16.00;;;;;;;;;;5102392;28;20541;-70
2022/03/22 11:36:44;;;;;;;70.80;15.20;;;;;;;;;;5115228;28;20969;-70
2022/03/22 11:39:12;;;;;;;72.50;15.20;;;;;;;;;;5115054;28;20453;-70
2022/03/22 11:44:29;;;;;;;69.77;15.27;;;;;;;;;;5115257;28;20495;-70
2022/03/22 11:47:03;;;;;;;69.93;14.80;;;;;;;;;;5115044;28;20977;-70
2022/03/22 11:49:31;;;;;;;73.73;14.60;;;;;;;;;;5114577;28;20801;-70
2022/03/22 11:51:58;;;;;;;71.83;15.50;;;;;;;;;;5115366;28;20498;-70
2022/03/22 11:54:27;;;;;;;70.83;15.50;;;;;;;;;;5115209;28;20869;-70
2022/03/22 11:56:56;;;;;;;70.00;15.77;;;;;;;;;;5115025;28;20548;-70
2022/03/22 11:59:24;;;;;;;72.23;14.40;;;;;;;;;;5114281;28;20536;-70
2022/03/22 12:01:56;;;;;;;68.23;14.17;;;;;;;;;;5114828;28;20536;-70
2022/03/22 12:04:34;;;;;;;72.20;15.33;;;;;;;;;;5107095;28;20505;-70
2022/03/22 12:07:01;;;;;;;72.37;14.43;;;;;;;;;;5094396;28;20474;-70
2022/03/22 12:09:28;;;;;;;67.77;13.67;;;;;;;;;;5093813;28;20469;-70
2022/03/22 12:11:56;;;;;;;70.30;15.00;;;;;;;;;;5094272;28;20457;-70
2022/03/22 12:14:28;;;;;;;71.40;16.50;;;;;;;;;;5094088;28;20541;-68
2022/03/22 12:16:57;;;;;;;69.17;13.50;;;;;;;;;;5094061;28;20986;-70
2022/03/22 12:19:28;;;;;;;71.83;14.70;;;;;;;;;;5093653;28;20451;-69
2022/03/22 12:21:55;;;;;;;68.67;15.00;;;;;;;;;;5094139;28;20472;-69
2022/03/22 12:24:23;;;;;;;69.17;15.00;;;;;;;;;;5093916;28;20482;-69
2022/03/22 12:26:51;;;;;;;68.20;14.97;;;;;;;;;;5093660;28;20476;-69
2022/03/22 12:29:18;;;;;;;68.87;15.33;;;;;;;;;;5093455;28;20493;-69
2022/03/22 12:31:49;;;;;;;70.47;14.90;;;;;;;;;;5094175;28;20529;-69
2022/03/22 12:34:17;;;;;;;70.67;15.17;;;;;;;;;;5093885;28;20450;-70
2022/03/22 12:36:45;;;;;;;70.27;14.47;;;;;;;;;;5098647;28;20869;-69
2022/03/22 12:39:12;;;;;;;66.83;13.70;;;;;;;;;;5107654;28;20450;-70
2022/03/22 12:41:40;;;;;;;76.50;14.67;;;;;;;;;;5093923;28;20869;-69
2022/03/22 12:44:08;;;;;;;70.67;14.93;;;;;;;;;;5093794;28;20945;-70
2022/03/22 12:46:35;;;;;;;73.70;15.30;;;;;;;;;;5093663;28;20486;-70
2022/03/22 12:49:02;;;;;;;69.17;16.00;;;;;;;;;;5092896;28;20914;-71
2022/03/22 12:51:31;;;;;;;71.93;14.93;;;;;;;;;;5093616;28;20454;-69
2022/03/22 12:53:59;;;;;;;69.53;15.37;;;;;;;;;;5093565;28;20454;-70
2022/03/22 12:56:26;;;;;;;68.27;15.07;;;;;;;;;;5093656;28;20857;-69
2022/03/22 12:58:56;;;;;;;66.47;14.10;;;;;;;;;;5092950;28;20446;-70
2022/03/22 13:01:23;;;;;;;66.30;13.40;;;;;;;;;;5093425;28;20458;-69
2022/03/22 13:03:51;;;;;;;68.37;15.07;;;;;;;;;;5093233;28;20468;-70
2022/03/22 13:06:18;;;;;;;68.73;14.53;;;;;;;;;;5092970;28;20489;-70
2022/03/22 13:11:35;;;;;;;69.77;14.63;;;;;;;;;;5113909;28;20433;-70
2022/03/22 13:16:52;;;;;;;66.00;14.70;;;;;;;;;;5112530;28;20953;-69
2022/03/22 13:19:20;;;;;;;65.97;14.07;;;;;;;;;;5112881;28;20445;-69
2022/03/22 13:21:47;;;;;;;71.33;15.90;;;;;;;;;;5113587;28;20567;-69
2022/03/22 13:24:22;;;;;;;72.50;14.17;;;;;;;;;;5112969;28;20544;-70
2022/03/22 13:26:53;;;;;;;72.00;15.17;;;;;;;;;;5111278;28;20563;-70
2022/03/22 13:29:20;;;;;;;67.27;15.33;;;;;;;;;;5110187;28;20929;-70
2022/03/22 13:31:54;;;;;;;69.57;13.83;;;;;;;;;;5111563;28;20472;-70
2022/03/22 13:34:22;;;;;;;71.67;17.00;;;;;;;;;;5111231;28;20536;-71
2022/03/22 13:36:49;;;;;;;68.60;14.53;;;;;;;;;;5110982;28;20540;-71
2022/03/22 13:39:25;;;;;;;67.27;15.20;;;;;;;;;;5110287;28;20889;-70
2022/03/22 13:41:52;;;;;;;68.83;15.00;;;;;;;;;;5110294;28;20452;-70
2022/03/22 13:44:28;;;;;;;66.87;14.07;;;;;;;;;;5113063;28;20826;-69
2022/03/22 13:46:59;;;;;;;71.40;15.67;;;;;;;;;;5112713;28;21066;-71
2022/03/22 13:49:34;;;;;;;68.50;14.80;;;;;;;;;;5112066;28;20456;-70
2022/03/22 13:52:01;;;;;;;69.87;17.17;;;;;;;;;;5112613;28;20453;-70
2022/03/22 13:54:30;;;;;;;69.10;15.20;;;;;;;;;;5112925;27;20792;-69
2022/03/22 13:57:06;;;;;;;68.70;14.57;;;;;;;;;;5112489;28;20486;-70
2022/03/22 13:59:39;;;;;;;68.80;15.73;;;;;;;;;;5112367;28;20459;-69
2022/03/22 14:02:06;;;;;;;69.23;15.53;;;;;;;;;;5112512;28;20536;-70
2022/03/22 14:04:34;;;;;;;70.60;15.57;;;;;;;;;;5112346;28;20454;-69
2022/03/22 14:07:01;;;;;;;68.67;14.23;;;;;;;;;;5112506;28;20468;-70
2022/03/22 14:09:31;;;;;;;68.37;14.37;;;;;;;;;;5111251;28;20816;-70
2022/03/22 14:12:03;;;;;;;68.87;15.20;;;;;;;;;;5108096;28;20510;-69
2022/03/22 14:14:30;;;;;;;70.37;14.47;;;;;;;;;;5113469;28;20503;-69
2022/03/22 14:16:57;;;;;;;69.33;14.10;;;;;;;;;;5111477;28;20865;-69
2022/03/22 14:19:24;;;;;;;73.43;14.87;;;;;;;;;;5111850;28;20441;-69
2022/03/22 14:21:51;;;;;;;69.53;14.50;;;;;;;;;;5112778;28;20445;-70
2022/03/22 14:24:18;;;;;;;70.13;14.37;;;;;;;;;;5112392;28;20495;-70
2022/03/22 14:26:47;;;;;;;78.83;14.33;;;;;;;;;;5112326;28;20518;-70
2022/03/22 14:29:14;;;;;;;67.90;13.73;;;;;;;;;;5111551;28;20489;-70
2022/03/22 14:31:43;;;;;;;66.93;13.23;;;;;;;;;;5112161;28;20536;-72
2022/03/22 14:34:12;;;;;;;68.97;14.27;;;;;;;;;;5107883;28;20445;-70
2022/03/22 14:36:38;;;;;;;69.07;14.67;;;;;;;;;;5092305;28;20555;-69
2022/03/22 14:39:05;;;;;;;70.17;14.03;;;;;;;;;;5110477;28;20827;-71
2022/03/22 14:41:33;;;;;;;66.37;12.50;;;;;;;;;;5111951;28;20532;-70
2022/03/22 14:44:02;;;;;;;68.20;14.63;;;;;;;;;;5110463;28;20533;-70
2022/03/22 14:46:31;;;;;;;66.50;13.17;;;;;;;;;;5112166;28;20461;-69
2022/03/22 14:48:58;;;;;;;68.07;12.50;;;;;;;;;;5104981;28;20447;-69
2022/03/22 14:54:09;;;;;;;71.00;14.07;;;;;;;;;;5111605;28;20421;-72
2022/03/22 14:59:23;;;;;;;69.57;14.30;;;;;;;;;;5111524;28;20417;-70
2022/03/22 15:01:50;;;;;;;68.40;14.87;;;;;;;;;;5112198;28;20449;-71